Terminal Aerodrome Forecast
Issued by NWS

Home | Current Version | Previous Version | Text Only | Print | Product List | Glossary On
Versions: 1 2 3 4 5 6 7 8 9 10 11 12 13 14 15 16
000
FTAK31 PAJN 261700
TAFAKT
TAF
PAKT 261737Z 2618/2718 31008KT P6SM VCFG SCT005 BKN050
     FM262100 09006KT P6SM SCT010 BKN070
     FM270400 31006KT 6SM BR SCT010 BKN040 BKN100
     FM271500 VRB06KT P6SM SCT030 BKN100
      AMD LTD TO CLD VIS AND WIND 2706/2715=

USA.gov is the U.S. government's official web portal to all federal, state and local government web resources and services.